sensor_id;sensor_type;location;lat;lon;timestamp;P1;durP1;ratioP1;P2;durP2;ratioP2
24216;SDS011;12356;49.386;8.688;2024-03-25T00:02:13;4.95;;;2.55;;
24216;SDS011;12356;49.386;8.688;2024-03-25T00:04:44;7.20;;;2.92;;
24216;SDS011;12356;49.386;8.688;2024-03-25T00:07:15;5.25;;;2.60;;
24216;SDS011;12356;49.386;8.688;2024-03-25T00:09:45;4.40;;;2.80;;
24216;SDS011;12356;49.386;8.688;2024-03-25T00:12:16;5.75;;;2.60;;
24216;SDS011;12356;49.386;8.688;2024-03-25T00:14:47;5.20;;;2.47;;
24216;SDS011;12356;49.386;8.688;2024-03-25T00:17:17;5.68;;;2.63;;
24216;SDS011;12356;49.386;8.688;2024-03-25T00:19:49;3.72;;;2.63;;
24216;SDS011;12356;49.386;8.688;2024-03-25T00:22:23;6.93;;;2.75;;
24216;SDS011;12356;49.386;8.688;2024-03-25T00:24:55;5.63;;;3.20;;
24216;SDS011;12356;49.386;8.688;2024-03-25T00:27:26;5.50;;;2.95;;
24216;SDS011;12356;49.386;8.688;2024-03-25T00:29:56;6.75;;;3.00;;
24216;SDS011;12356;49.386;8.688;2024-03-25T00:32:27;5.68;;;3.00;;
24216;SDS011;12356;49.386;8.688;2024-03-25T00:34:58;5.70;;;3.17;;
24216;SDS011;12356;49.386;8.688;2024-03-25T00:37:28;7.20;;;3.25;;
24216;SDS011;12356;49.386;8.688;2024-03-25T00:39:59;5.15;;;2.97;;
24216;SDS011;12356;49.386;8.688;2024-03-25T00:42:30;7.25;;;2.88;;
24216;SDS011;12356;49.386;8.688;2024-03-25T00:45:00;5.47;;;2.90;;
24216;SDS011;12356;49.386;8.688;2024-03-25T00:47:31;5.65;;;3.08;;
24216;SDS011;12356;49.386;8.688;2024-03-25T00:50:02;7.15;;;3.20;;
24216;SDS011;12356;49.386;8.688;2024-03-25T00:52:34;7.05;;;2.92;;
24216;SDS011;12356;49.386;8.688;2024-03-25T00:55:05;10.27;;;3.00;;
24216;SDS011;12356;49.386;8.688;2024-03-25T00:57:38;6.85;;;3.33;;
24216;SDS011;12356;49.386;8.688;2024-03-25T01:00:09;5.60;;;3.08;;
24216;SDS011;12356;49.386;8.688;2024-03-25T01:02:40;7.63;;;3.22;;
24216;SDS011;12356;49.386;8.688;2024-03-25T01:05:10;5.20;;;3.03;;
24216;SDS011;12356;49.386;8.688;2024-03-25T01:07:41;6.40;;;3.22;;
24216;SDS011;12356;49.386;8.688;2024-03-25T01:10:12;6.38;;;2.92;;
24216;SDS011;12356;49.386;8.688;2024-03-25T01:12:42;6.30;;;3.03;;
24216;SDS011;12356;49.386;8.688;2024-03-25T01:15:13;7.20;;;3.10;;
24216;SDS011;12356;49.386;8.688;2024-03-25T01:17:43;6.50;;;3.28;;
24216;SDS011;12356;49.386;8.688;2024-03-25T01:20:14;6.80;;;3.00;;
24216;SDS011;12356;49.386;8.688;2024-03-25T01:22:44;5.43;;;2.85;;
24216;SDS011;12356;49.386;8.688;2024-03-25T01:25:15;4.25;;;2.78;;
24216;SDS011;12356;49.386;8.688;2024-03-25T01:27:45;7.97;;;3.08;;
24216;SDS011;12356;49.386;8.688;2024-03-25T01:30:16;6.18;;;3.00;;
24216;SDS011;12356;49.386;8.688;2024-03-25T01:32:48;7.43;;;3.10;;
24216;SDS011;12356;49.386;8.688;2024-03-25T01:35:20;7.20;;;3.17;;
24216;SDS011;12356;49.386;8.688;2024-03-25T01:37:50;5.75;;;3.00;;
24216;SDS011;12356;49.386;8.688;2024-03-25T01:40:21;6.70;;;2.95;;
24216;SDS011;12356;49.386;8.688;2024-03-25T01:43:02;7.80;;;3.03;;
24216;SDS011;12356;49.386;8.688;2024-03-25T01:45:34;9.50;;;3.40;;
24216;SDS011;12356;49.386;8.688;2024-03-25T01:48:06;7.53;;;2.95;;
24216;SDS011;12356;49.386;8.688;2024-03-25T01:50:39;7.00;;;3.30;;
24216;SDS011;12356;49.386;8.688;2024-03-25T01:53:13;8.05;;;3.22;;
24216;SDS011;12356;49.386;8.688;2024-03-25T01:55:44;6.80;;;3.20;;
24216;SDS011;12356;49.386;8.688;2024-03-25T01:58:18;9.35;;;3.55;;
24216;SDS011;12356;49.386;8.688;2024-03-25T02:00:49;4.70;;;2.92;;
24216;SDS011;12356;49.386;8.688;2024-03-25T02:03:21;6.60;;;3.20;;
24216;SDS011;12356;49.386;8.688;2024-03-25T02:05:55;6.70;;;3.10;;
24216;SDS011;12356;49.386;8.688;2024-03-25T02:08:30;6.30;;;3.17;;
24216;SDS011;12356;49.386;8.688;2024-03-25T02:11:01;6.35;;;3.30;;
24216;SDS011;12356;49.386;8.688;2024-03-25T02:13:32;7.63;;;3.10;;
24216;SDS011;12356;49.386;8.688;2024-03-25T02:16:02;6.85;;;3.15;;
24216;SDS011;12356;49.386;8.688;2024-03-25T02:18:33;10.13;;;3.50;;
24216;SDS011;12356;49.386;8.688;2024-03-25T02:21:04;6.32;;;2.97;;
24216;SDS011;12356;49.386;8.688;2024-03-25T02:23:35;7.57;;;3.20;;
24216;SDS011;12356;49.386;8.688;2024-03-25T02:26:09;7.45;;;3.25;;
24216;SDS011;12356;49.386;8.688;2024-03-25T02:28:39;7.07;;;3.60;;
24216;SDS011;12356;49.386;8.688;2024-03-25T02:31:10;9.02;;;3.58;;
24216;SDS011;12356;49.386;8.688;2024-03-25T02:33:41;6.43;;;3.20;;
24216;SDS011;12356;49.386;8.688;2024-03-25T02:36:12;8.95;;;3.47;;
24216;SDS011;12356;49.386;8.688;2024-03-25T02:38:43;7.47;;;3.58;;
24216;SDS011;12356;49.386;8.688;2024-03-25T02:41:13;8.38;;;3.33;;
24216;SDS011;12356;49.386;8.688;2024-03-25T02:43:44;7.47;;;3.60;;
24216;SDS011;12356;49.386;8.688;2024-03-25T02:46:14;5.95;;;3.53;;
24216;SDS011;12356;49.386;8.688;2024-03-25T02:48:45;7.15;;;3.55;;
24216;SDS011;12356;49.386;8.688;2024-03-25T02:51:16;7.07;;;3.30;;
24216;SDS011;12356;49.386;8.688;2024-03-25T02:53:47;6.55;;;3.50;;
24216;SDS011;12356;49.386;8.688;2024-03-25T02:56:17;7.55;;;3.70;;
24216;SDS011;12356;49.386;8.688;2024-03-25T02:58:48;7.72;;;3.58;;
24216;SDS011;12356;49.386;8.688;2024-03-25T03:01:18;6.93;;;3.25;;
24216;SDS011;12356;49.386;8.688;2024-03-25T03:03:49;6.95;;;3.72;;
24216;SDS011;12356;49.386;8.688;2024-03-25T03:06:19;6.40;;;3.42;;
24216;SDS011;12356;49.386;8.688;2024-03-25T03:08:50;7.55;;;3.60;;
24216;SDS011;12356;49.386;8.688;2024-03-25T03:11:21;7.15;;;3.63;;
24216;SDS011;12356;49.386;8.688;2024-03-25T03:13:51;7.03;;;3.80;;
24216;SDS011;12356;49.386;8.688;2024-03-25T03:16:22;9.43;;;3.50;;
24216;SDS011;12356;49.386;8.688;2024-03-25T03:18:52;7.60;;;3.90;;
24216;SDS011;12356;49.386;8.688;2024-03-25T03:21:23;8.68;;;4.00;;
24216;SDS011;12356;49.386;8.688;2024-03-25T03:23:53;9.90;;;4.20;;
24216;SDS011;12356;49.386;8.688;2024-03-25T03:26:24;9.55;;;3.50;;
24216;SDS011;12356;49.386;8.688;2024-03-25T03:28:57;7.10;;;3.58;;
24216;SDS011;12356;49.386;8.688;2024-03-25T03:31:28;9.95;;;3.85;;
24216;SDS011;12356;49.386;8.688;2024-03-25T03:33:59;9.07;;;3.92;;
24216;SDS011;12356;49.386;8.688;2024-03-25T03:36:29;7.18;;;3.38;;
24216;SDS011;12356;49.386;8.688;2024-03-25T03:39:00;6.57;;;3.40;;
24216;SDS011;12356;49.386;8.688;2024-03-25T03:41:30;7.13;;;4.03;;
24216;SDS011;12356;49.386;8.688;2024-03-25T03:44:01;7.25;;;3.70;;
24216;SDS011;12356;49.386;8.688;2024-03-25T03:46:32;7.32;;;3.83;;
24216;SDS011;12356;49.386;8.688;2024-03-25T03:49:02;7.72;;;3.90;;
24216;SDS011;12356;49.386;8.688;2024-03-25T03:51:33;8.50;;;3.85;;
24216;SDS011;12356;49.386;8.688;2024-03-25T03:54:04;8.25;;;3.50;;
24216;SDS011;12356;49.386;8.688;2024-03-25T03:56:34;8.18;;;3.92;;
24216;SDS011;12356;49.386;8.688;2024-03-25T03:59:05;6.72;;;3.38;;
24216;SDS011;12356;49.386;8.688;2024-03-25T04:01:35;10.52;;;3.75;;
24216;SDS011;12356;49.386;8.688;2024-03-25T04:04:06;8.48;;;3.67;;
24216;SDS011;12356;49.386;8.688;2024-03-25T04:06:36;9.00;;;3.72;;
24216;SDS011;12356;49.386;8.688;2024-03-25T04:09:10;7.10;;;3.83;;
24216;SDS011;12356;49.386;8.688;2024-03-25T04:11:41;11.00;;;4.30;;
24216;SDS011;12356;49.386;8.688;2024-03-25T04:14:11;10.23;;;4.28;;
24216;SDS011;12356;49.386;8.688;2024-03-25T04:16:42;8.32;;;3.95;;
24216;SDS011;12356;49.386;8.688;2024-03-25T04:19:13;11.50;;;4.03;;
24216;SDS011;12356;49.386;8.688;2024-03-25T04:21:43;9.85;;;4.00;;
24216;SDS011;12356;49.386;8.688;2024-03-25T04:24:14;9.05;;;4.43;;
24216;SDS011;12356;49.386;8.688;2024-03-25T04:26:45;8.15;;;3.92;;
24216;SDS011;12356;49.386;8.688;2024-03-25T04:29:16;6.30;;;3.70;;
24216;SDS011;12356;49.386;8.688;2024-03-25T04:31:46;7.82;;;3.53;;
24216;SDS011;12356;49.386;8.688;2024-03-25T04:34:17;6.70;;;3.72;;
24216;SDS011;12356;49.386;8.688;2024-03-25T04:36:49;7.28;;;3.47;;
24216;SDS011;12356;49.386;8.688;2024-03-25T04:39:19;7.78;;;3.60;;
24216;SDS011;12356;49.386;8.688;2024-03-25T04:41:50;6.78;;;3.30;;
24216;SDS011;12356;49.386;8.688;2024-03-25T04:44:20;7.53;;;3.60;;
24216;SDS011;12356;49.386;8.688;2024-03-25T04:46:51;9.07;;;3.35;;
24216;SDS011;12356;49.386;8.688;2024-03-25T04:49:22;7.95;;;3.50;;
24216;SDS011;12356;49.386;8.688;2024-03-25T04:51:52;7.43;;;3.22;;
24216;SDS011;12356;49.386;8.688;2024-03-25T04:54:23;8.50;;;3.25;;
24216;SDS011;12356;49.386;8.688;2024-03-25T04:56:54;7.47;;;3.25;;
24216;SDS011;12356;49.386;8.688;2024-03-25T04:59:25;5.78;;;3.40;;
24216;SDS011;12356;49.386;8.688;2024-03-25T05:01:56;6.35;;;3.25;;
24216;SDS011;12356;49.386;8.688;2024-03-25T05:04:26;10.07;;;3.35;;
24216;SDS011;12356;49.386;8.688;2024-03-25T05:06:57;9.88;;;3.08;;
24216;SDS011;12356;49.386;8.688;2024-03-25T05:09:27;11.23;;;3.50;;
24216;SDS011;12356;49.386;8.688;2024-03-25T05:11:58;8.10;;;3.22;;
24216;SDS011;12356;49.386;8.688;2024-03-25T05:14:29;8.05;;;3.03;;
24216;SDS011;12356;49.386;8.688;2024-03-25T05:16:59;11.60;;;3.60;;
24216;SDS011;12356;49.386;8.688;2024-03-25T05:22:03;9.27;;;3.30;;
24216;SDS011;12356;49.386;8.688;2024-03-25T05:24:33;9.77;;;3.70;;
24216;SDS011;12356;49.386;8.688;2024-03-25T05:27:04;7.28;;;3.00;;
24216;SDS011;12356;49.386;8.688;2024-03-25T05:29:35;11.77;;;3.78;;
24216;SDS011;12356;49.386;8.688;2024-03-25T05:32:05;7.40;;;3.47;;
24216;SDS011;12356;49.386;8.688;2024-03-25T05:34:36;8.18;;;3.55;;
24216;SDS011;12356;49.386;8.688;2024-03-25T05:37:07;8.52;;;3.40;;
24216;SDS011;12356;49.386;8.688;2024-03-25T05:39:37;6.65;;;3.72;;
24216;SDS011;12356;49.386;8.688;2024-03-25T05:42:08;8.90;;;3.90;;
24216;SDS011;12356;49.386;8.688;2024-03-25T05:44:39;8.23;;;3.50;;
24216;SDS011;12356;49.386;8.688;2024-03-25T05:47:09;8.15;;;3.58;;
24216;SDS011;12356;49.386;8.688;2024-03-25T05:49:40;7.85;;;3.95;;
24216;SDS011;12356;49.386;8.688;2024-03-25T05:52:10;7.45;;;3.75;;
24216;SDS011;12356;49.386;8.688;2024-03-25T05:54:41;9.57;;;3.83;;
24216;SDS011;12356;49.386;8.688;2024-03-25T05:57:11;8.25;;;3.85;;
24216;SDS011;12356;49.386;8.688;2024-03-25T05:59:42;11.27;;;4.30;;
24216;SDS011;12356;49.386;8.688;2024-03-25T06:02:13;9.43;;;4.30;;
24216;SDS011;12356;49.386;8.688;2024-03-25T06:04:43;9.43;;;4.50;;
24216;SDS011;12356;49.386;8.688;2024-03-25T06:07:14;9.68;;;4.70;;
24216;SDS011;12356;49.386;8.688;2024-03-25T06:09:44;9.40;;;4.18;;
24216;SDS011;12356;49.386;8.688;2024-03-25T06:12:15;8.63;;;4.38;;
24216;SDS011;12356;49.386;8.688;2024-03-25T06:14:46;8.60;;;4.40;;
24216;SDS011;12356;49.386;8.688;2024-03-25T06:17:16;9.90;;;4.60;;
24216;SDS011;12356;49.386;8.688;2024-03-25T06:19:47;12.88;;;4.00;;
24216;SDS011;12356;49.386;8.688;2024-03-25T06:22:17;8.82;;;3.83;;
24216;SDS011;12356;49.386;8.688;2024-03-25T06:24:48;8.95;;;3.80;;
24216;SDS011;12356;49.386;8.688;2024-03-25T06:27:20;10.82;;;4.00;;
24216;SDS011;12356;49.386;8.688;2024-03-25T06:29:51;8.57;;;4.13;;
24216;SDS011;12356;49.386;8.688;2024-03-25T06:32:42;10.00;;;4.68;;
24216;SDS011;12356;49.386;8.688;2024-03-25T06:35:31;10.15;;;4.25;;
24216;SDS011;12356;49.386;8.688;2024-03-25T06:38:01;8.73;;;4.30;;
24216;SDS011;12356;49.386;8.688;2024-03-25T06:40:32;9.05;;;4.57;;
24216;SDS011;12356;49.386;8.688;2024-03-25T06:43:03;10.63;;;5.00;;
24216;SDS011;12356;49.386;8.688;2024-03-25T06:45:34;9.07;;;4.68;;
24216;SDS011;12356;49.386;8.688;2024-03-25T06:48:04;9.50;;;4.60;;
24216;SDS011;12356;49.386;8.688;2024-03-25T06:50:35;8.85;;;4.22;;
24216;SDS011;12356;49.386;8.688;2024-03-25T06:53:06;8.90;;;4.50;;
24216;SDS011;12356;49.386;8.688;2024-03-25T06:55:37;11.05;;;4.18;;
24216;SDS011;12356;49.386;8.688;2024-03-25T06:58:07;8.65;;;4.70;;
24216;SDS011;12356;49.386;8.688;2024-03-25T07:00:38;13.05;;;5.97;;
24216;SDS011;12356;49.386;8.688;2024-03-25T07:03:09;11.80;;;5.57;;
24216;SDS011;12356;49.386;8.688;2024-03-25T07:05:39;14.23;;;5.82;;
24216;SDS011;12356;49.386;8.688;2024-03-25T07:08:10;12.45;;;6.32;;
24216;SDS011;12356;49.386;8.688;2024-03-25T07:10:41;14.32;;;6.53;;
24216;SDS011;12356;49.386;8.688;2024-03-25T07:13:12;15.85;;;6.85;;
24216;SDS011;12356;49.386;8.688;2024-03-25T07:15:43;10.98;;;5.88;;
24216;SDS011;12356;49.386;8.688;2024-03-25T07:18:14;10.93;;;5.63;;
24216;SDS011;12356;49.386;8.688;2024-03-25T07:20:45;10.13;;;4.60;;
24216;SDS011;12356;49.386;8.688;2024-03-25T07:23:15;10.32;;;4.70;;
24216;SDS011;12356;49.386;8.688;2024-03-25T07:25:46;11.90;;;5.38;;
24216;SDS011;12356;49.386;8.688;2024-03-25T07:28:17;8.65;;;4.65;;
24216;SDS011;12356;49.386;8.688;2024-03-25T07:30:49;11.00;;;5.25;;
24216;SDS011;12356;49.386;8.688;2024-03-25T07:33:20;9.00;;;5.03;;
24216;SDS011;12356;49.386;8.688;2024-03-25T07:35:51;12.88;;;5.55;;
24216;SDS011;12356;49.386;8.688;2024-03-25T07:38:21;9.27;;;4.93;;
24216;SDS011;12356;49.386;8.688;2024-03-25T07:40:52;10.27;;;5.45;;
24216;SDS011;12356;49.386;8.688;2024-03-25T07:43:22;13.77;;;7.93;;
24216;SDS011;12356;49.386;8.688;2024-03-25T07:45:53;9.15;;;5.15;;
24216;SDS011;12356;49.386;8.688;2024-03-25T07:48:23;10.68;;;5.55;;
24216;SDS011;12356;49.386;8.688;2024-03-25T07:50:54;11.60;;;5.85;;
24216;SDS011;12356;49.386;8.688;2024-03-25T07:53:24;11.95;;;5.28;;
24216;SDS011;12356;49.386;8.688;2024-03-25T07:55:55;9.00;;;5.28;;
24216;SDS011;12356;49.386;8.688;2024-03-25T07:58:26;10.32;;;5.43;;
24216;SDS011;12356;49.386;8.688;2024-03-25T08:00:56;12.00;;;6.13;;
24216;SDS011;12356;49.386;8.688;2024-03-25T08:03:27;14.73;;;5.30;;
24216;SDS011;12356;49.386;8.688;2024-03-25T08:05:57;12.02;;;5.97;;
24216;SDS011;12356;49.386;8.688;2024-03-25T08:08:28;12.93;;;5.60;;
24216;SDS011;12356;49.386;8.688;2024-03-25T08:10:59;9.07;;;5.65;;
24216;SDS011;12356;49.386;8.688;2024-03-25T08:13:29;13.93;;;5.68;;
24216;SDS011;12356;49.386;8.688;2024-03-25T08:16:00;10.57;;;5.68;;
24216;SDS011;12356;49.386;8.688;2024-03-25T08:18:30;9.45;;;5.15;;
24216;SDS011;12356;49.386;8.688;2024-03-25T08:21:01;10.73;;;5.38;;
24216;SDS011;12356;49.386;8.688;2024-03-25T08:23:32;9.82;;;5.10;;
24216;SDS011;12356;49.386;8.688;2024-03-25T08:26:02;8.75;;;5.00;;
24216;SDS011;12356;49.386;8.688;2024-03-25T08:28:33;8.57;;;5.15;;
24216;SDS011;12356;49.386;8.688;2024-03-25T08:31:03;9.68;;;5.07;;
24216;SDS011;12356;49.386;8.688;2024-03-25T08:33:34;10.60;;;4.82;;
24216;SDS011;12356;49.386;8.688;2024-03-25T08:36:05;9.98;;;5.03;;
24216;SDS011;12356;49.386;8.688;2024-03-25T08:38:35;8.68;;;4.78;;
24216;SDS011;12356;49.386;8.688;2024-03-25T08:41:06;11.82;;;4.65;;
24216;SDS011;12356;49.386;8.688;2024-03-25T08:43:37;12.32;;;6.00;;
24216;SDS011;12356;49.386;8.688;2024-03-25T08:46:07;9.57;;;4.90;;
24216;SDS011;12356;49.386;8.688;2024-03-25T08:48:38;10.65;;;4.63;;
24216;SDS011;12356;49.386;8.688;2024-03-25T08:51:08;16.67;;;4.90;;
24216;SDS011;12356;49.386;8.688;2024-03-25T08:53:39;9.15;;;5.03;;
24216;SDS011;12356;49.386;8.688;2024-03-25T08:56:09;12.63;;;4.55;;
24216;SDS011;12356;49.386;8.688;2024-03-25T08:58:40;6.72;;;4.10;;
24216;SDS011;12356;49.386;8.688;2024-03-25T09:01:10;7.35;;;4.00;;
24216;SDS011;12356;49.386;8.688;2024-03-25T09:03:44;8.82;;;4.07;;
24216;SDS011;12356;49.386;8.688;2024-03-25T09:06:14;7.82;;;3.65;;
24216;SDS011;12356;49.386;8.688;2024-03-25T09:08:46;6.53;;;3.45;;
24216;SDS011;12356;49.386;8.688;2024-03-25T09:11:35;7.35;;;3.47;;
24216;SDS011;12356;49.386;8.688;2024-03-25T09:14:06;7.40;;;3.00;;
24216;SDS011;12356;49.386;8.688;2024-03-25T09:16:36;5.10;;;2.70;;
24216;SDS011;12356;49.386;8.688;2024-03-25T09:19:07;7.05;;;2.85;;
24216;SDS011;12356;49.386;8.688;2024-03-25T09:21:37;6.85;;;2.78;;
24216;SDS011;12356;49.386;8.688;2024-03-25T09:24:08;7.05;;;2.80;;
24216;SDS011;12356;49.386;8.688;2024-03-25T09:26:39;5.88;;;2.70;;
24216;SDS011;12356;49.386;8.688;2024-03-25T09:29:09;7.68;;;2.70;;
24216;SDS011;12356;49.386;8.688;2024-03-25T09:31:41;4.68;;;2.47;;
24216;SDS011;12356;49.386;8.688;2024-03-25T09:34:12;8.32;;;2.65;;
24216;SDS011;12356;49.386;8.688;2024-03-25T09:36:43;7.78;;;2.60;;
24216;SDS011;12356;49.386;8.688;2024-03-25T09:39:13;8.30;;;2.90;;
24216;SDS011;12356;49.386;8.688;2024-03-25T09:41:45;9.40;;;3.70;;
24216;SDS011;12356;49.386;8.688;2024-03-25T09:44:24;5.93;;;2.72;;
24216;SDS011;12356;49.386;8.688;2024-03-25T09:46:55;7.13;;;2.63;;
24216;SDS011;12356;49.386;8.688;2024-03-25T09:49:26;6.47;;;2.40;;
24216;SDS011;12356;49.386;8.688;2024-03-25T09:51:58;5.60;;;2.38;;
24216;SDS011;12356;49.386;8.688;2024-03-25T09:54:29;4.80;;;2.83;;
24216;SDS011;12356;49.386;8.688;2024-03-25T09:57:00;7.28;;;2.40;;
24216;SDS011;12356;49.386;8.688;2024-03-25T09:59:31;6.90;;;2.90;;
24216;SDS011;12356;49.386;8.688;2024-03-25T10:02:02;7.88;;;2.63;;
24216;SDS011;12356;49.386;8.688;2024-03-25T10:04:33;6.82;;;2.63;;
24216;SDS011;12356;49.386;8.688;2024-03-25T10:07:09;8.77;;;2.50;;
24216;SDS011;12356;49.386;8.688;2024-03-25T10:09:40;5.18;;;2.55;;
24216;SDS011;12356;49.386;8.688;2024-03-25T10:12:12;5.78;;;2.50;;
24216;SDS011;12356;49.386;8.688;2024-03-25T10:14:43;4.70;;;2.40;;
24216;SDS011;12356;49.386;8.688;2024-03-25T10:17:14;6.20;;;2.50;;
24216;SDS011;12356;49.386;8.688;2024-03-25T10:19:44;5.60;;;2.38;;
24216;SDS011;12356;49.386;8.688;2024-03-25T10:22:15;8.23;;;2.50;;
24216;SDS011;12356;49.386;8.688;2024-03-25T10:24:45;4.95;;;2.30;;
24216;SDS011;12356;49.386;8.688;2024-03-25T10:29:53;4.85;;;2.50;;
24216;SDS011;12356;49.386;8.688;2024-03-25T10:32:27;7.93;;;2.75;;
24216;SDS011;12356;49.386;8.688;2024-03-25T10:34:58;6.35;;;2.45;;
24216;SDS011;12356;49.386;8.688;2024-03-25T10:37:30;5.22;;;2.45;;
24216;SDS011;12356;49.386;8.688;2024-03-25T10:40:01;5.75;;;2.17;;
24216;SDS011;12356;49.386;8.688;2024-03-25T10:42:34;6.00;;;2.50;;
24216;SDS011;12356;49.386;8.688;2024-03-25T10:45:09;5.55;;;2.45;;
24216;SDS011;12356;49.386;8.688;2024-03-25T10:47:40;7.28;;;2.53;;
24216;SDS011;12356;49.386;8.688;2024-03-25T10:50:11;4.78;;;2.33;;
24216;SDS011;12356;49.386;8.688;2024-03-25T10:52:45;4.93;;;2.33;;
24216;SDS011;12356;49.386;8.688;2024-03-25T10:55:16;4.00;;;2.10;;
24216;SDS011;12356;49.386;8.688;2024-03-25T10:57:47;4.53;;;1.73;;
24216;SDS011;12356;49.386;8.688;2024-03-25T11:00:18;6.53;;;2.08;;
24216;SDS011;12356;49.386;8.688;2024-03-25T11:02:50;5.97;;;2.08;;
24216;SDS011;12356;49.386;8.688;2024-03-25T11:05:23;5.50;;;2.00;;
24216;SDS011;12356;49.386;8.688;2024-03-25T11:07:54;5.65;;;2.00;;
24216;SDS011;12356;49.386;8.688;2024-03-25T11:10:30;6.43;;;1.70;;
24216;SDS011;12356;49.386;8.688;2024-03-25T11:13:01;3.85;;;1.77;;
24216;SDS011;12356;49.386;8.688;2024-03-25T11:15:40;4.80;;;2.10;;
24216;SDS011;12356;49.386;8.688;2024-03-25T11:18:15;3.03;;;1.60;;
24216;SDS011;12356;49.386;8.688;2024-03-25T11:20:47;3.25;;;1.77;;
24216;SDS011;12356;49.386;8.688;2024-03-25T11:23:17;4.88;;;1.88;;
24216;SDS011;12356;49.386;8.688;2024-03-25T11:25:54;5.25;;;1.65;;
24216;SDS011;12356;49.386;8.688;2024-03-25T11:28:27;3.78;;;2.10;;
24216;SDS011;12356;49.386;8.688;2024-03-25T11:30:58;5.20;;;2.05;;
24216;SDS011;12356;49.386;8.688;2024-03-25T11:33:29;5.22;;;2.28;;
24216;SDS011;12356;49.386;8.688;2024-03-25T11:35:59;4.85;;;2.13;;
24216;SDS011;12356;49.386;8.688;2024-03-25T11:38:30;6.07;;;2.10;;
24216;SDS011;12356;49.386;8.688;2024-03-25T11:41:00;2.78;;;1.80;;
24216;SDS011;12356;49.386;8.688;2024-03-25T11:43:32;6.28;;;2.00;;
24216;SDS011;12356;49.386;8.688;2024-03-25T11:46:03;3.20;;;1.63;;
24216;SDS011;12356;49.386;8.688;2024-03-25T11:48:33;6.03;;;1.80;;
24216;SDS011;12356;49.386;8.688;2024-03-25T11:51:04;4.18;;;1.92;;
24216;SDS011;12356;49.386;8.688;2024-03-25T11:53:34;5.00;;;2.05;;
24216;SDS011;12356;49.386;8.688;2024-03-25T11:56:05;4.03;;;2.05;;
24216;SDS011;12356;49.386;8.688;2024-03-25T11:58:36;4.15;;;1.70;;
24216;SDS011;12356;49.386;8.688;2024-03-25T12:01:07;4.63;;;1.90;;
24216;SDS011;12356;49.386;8.688;2024-03-25T12:03:40;4.28;;;2.38;;
24216;SDS011;12356;49.386;8.688;2024-03-25T12:06:11;5.20;;;1.88;;
24216;SDS011;12356;49.386;8.688;2024-03-25T12:08:42;4.38;;;1.90;;
24216;SDS011;12356;49.386;8.688;2024-03-25T12:11:35;3.60;;;1.70;;
24216;SDS011;12356;49.386;8.688;2024-03-25T12:14:06;3.15;;;1.77;;
24216;SDS011;12356;49.386;8.688;2024-03-25T12:16:37;5.57;;;1.73;;
24216;SDS011;12356;49.386;8.688;2024-03-25T12:19:08;3.72;;;1.67;;
24216;SDS011;12356;49.386;8.688;2024-03-25T12:21:38;7.45;;;1.98;;
24216;SDS011;12356;49.386;8.688;2024-03-25T12:24:09;4.72;;;1.65;;
24216;SDS011;12356;49.386;8.688;2024-03-25T12:26:41;6.22;;;2.20;;
24216;SDS011;12356;49.386;8.688;2024-03-25T12:29:11;4.85;;;1.48;;
24216;SDS011;12356;49.386;8.688;2024-03-25T12:31:52;3.38;;;1.60;;
24216;SDS011;12356;49.386;8.688;2024-03-25T12:34:26;5.43;;;1.65;;
24216;SDS011;12356;49.386;8.688;2024-03-25T12:37:00;5.85;;;1.63;;
24216;SDS011;12356;49.386;8.688;2024-03-25T12:39:34;5.18;;;1.60;;
24216;SDS011;12356;49.386;8.688;2024-03-25T12:42:06;4.13;;;1.60;;
24216;SDS011;12356;49.386;8.688;2024-03-25T12:44:37;5.40;;;1.67;;
24216;SDS011;12356;49.386;8.688;2024-03-25T12:47:08;3.95;;;1.27;;
24216;SDS011;12356;49.386;8.688;2024-03-25T12:49:38;3.65;;;1.42;;
24216;SDS011;12356;49.386;8.688;2024-03-25T12:52:09;4.32;;;1.63;;
24216;SDS011;12356;49.386;8.688;2024-03-25T12:54:39;4.65;;;1.65;;
24216;SDS011;12356;49.386;8.688;2024-03-25T12:57:11;3.90;;;1.70;;
24216;SDS011;12356;49.386;8.688;2024-03-25T12:59:43;2.85;;;1.70;;
24216;SDS011;12356;49.386;8.688;2024-03-25T13:02:13;3.60;;;1.52;;
24216;SDS011;12356;49.386;8.688;2024-03-25T13:04:44;3.95;;;1.70;;
24216;SDS011;12356;49.386;8.688;2024-03-25T13:07:14;3.63;;;1.48;;
24216;SDS011;12356;49.386;8.688;2024-03-25T13:09:45;4.93;;;1.67;;
24216;SDS011;12356;49.386;8.688;2024-03-25T13:12:15;3.47;;;1.60;;
24216;SDS011;12356;49.386;8.688;2024-03-25T13:14:46;4.38;;;1.45;;
24216;SDS011;12356;49.386;8.688;2024-03-25T13:17:17;5.72;;;1.83;;
24216;SDS011;12356;49.386;8.688;2024-03-25T13:19:47;3.78;;;1.70;;
24216;SDS011;12356;49.386;8.688;2024-03-25T13:22:18;6.47;;;1.77;;
24216;SDS011;12356;49.386;8.688;2024-03-25T13:24:48;4.07;;;1.80;;
24216;SDS011;12356;49.386;8.688;2024-03-25T13:27:20;4.65;;;1.55;;
24216;SDS011;12356;49.386;8.688;2024-03-25T13:29:50;3.97;;;1.63;;
24216;SDS011;12356;49.386;8.688;2024-03-25T13:32:22;4.05;;;1.58;;
24216;SDS011;12356;49.386;8.688;2024-03-25T13:34:53;2.20;;;1.30;;
24216;SDS011;12356;49.386;8.688;2024-03-25T13:37:24;4.15;;;1.55;;
24216;SDS011;12356;49.386;8.688;2024-03-25T13:39:54;3.90;;;1.50;;
24216;SDS011;12356;49.386;8.688;2024-03-25T13:42:25;3.58;;;1.27;;
24216;SDS011;12356;49.386;8.688;2024-03-25T13:44:55;2.17;;;1.52;;
24216;SDS011;12356;49.386;8.688;2024-03-25T13:47:26;3.38;;;1.48;;
24216;SDS011;12356;49.386;8.688;2024-03-25T13:50:00;3.10;;;1.67;;
24216;SDS011;12356;49.386;8.688;2024-03-25T13:52:31;3.83;;;1.40;;
24216;SDS011;12356;49.386;8.688;2024-03-25T13:55:02;4.07;;;1.40;;
24216;SDS011;12356;49.386;8.688;2024-03-25T13:57:33;2.40;;;1.30;;
24216;SDS011;12356;49.386;8.688;2024-03-25T14:00:04;2.00;;;1.40;;
24216;SDS011;12356;49.386;8.688;2024-03-25T14:02:38;2.15;;;1.10;;
24216;SDS011;12356;49.386;8.688;2024-03-25T14:05:09;3.67;;;1.30;;
24216;SDS011;12356;49.386;8.688;2024-03-25T14:07:40;3.33;;;1.52;;
24216;SDS011;12356;49.386;8.688;2024-03-25T14:10:11;2.00;;;1.40;;
24216;SDS011;12356;49.386;8.688;2024-03-25T14:12:42;3.42;;;1.50;;
24216;SDS011;12356;49.386;8.688;2024-03-25T14:15:12;2.20;;;1.30;;
24216;SDS011;12356;49.386;8.688;2024-03-25T14:17:43;1.60;;;1.02;;
24216;SDS011;12356;49.386;8.688;2024-03-25T14:20:14;3.65;;;1.38;;
24216;SDS011;12356;49.386;8.688;2024-03-25T14:22:44;3.55;;;1.10;;
24216;SDS011;12356;49.386;8.688;2024-03-25T14:25:15;2.42;;;1.25;;
24216;SDS011;12356;49.386;8.688;2024-03-25T14:27:45;2.58;;;1.20;;
24216;SDS011;12356;49.386;8.688;2024-03-25T14:30:16;3.22;;;1.27;;
24216;SDS011;12356;49.386;8.688;2024-03-25T14:32:47;2.20;;;1.15;;
24216;SDS011;12356;49.386;8.688;2024-03-25T14:35:18;2.75;;;1.52;;
24216;SDS011;12356;49.386;8.688;2024-03-25T14:37:49;3.85;;;1.42;;
24216;SDS011;12356;49.386;8.688;2024-03-25T14:40:20;3.05;;;1.40;;
24216;SDS011;12356;49.386;8.688;2024-03-25T14:42:50;4.55;;;1.77;;
24216;SDS011;12356;49.386;8.688;2024-03-25T14:45:21;2.47;;;1.50;;
24216;SDS011;12356;49.386;8.688;2024-03-25T14:47:51;3.25;;;1.30;;
24216;SDS011;12356;49.386;8.688;2024-03-25T14:50:22;3.80;;;1.70;;
24216;SDS011;12356;49.386;8.688;2024-03-25T14:52:52;2.95;;;1.70;;
24216;SDS011;12356;49.386;8.688;2024-03-25T14:55:23;2.70;;;1.50;;
24216;SDS011;12356;49.386;8.688;2024-03-25T14:57:53;4.75;;;1.88;;
24216;SDS011;12356;49.386;8.688;2024-03-25T15:00:24;3.53;;;1.77;;
24216;SDS011;12356;49.386;8.688;2024-03-25T15:02:54;3.92;;;1.67;;
24216;SDS011;12356;49.386;8.688;2024-03-25T15:05:25;4.68;;;1.90;;
24216;SDS011;12356;49.386;8.688;2024-03-25T15:07:55;4.95;;;1.88;;
24216;SDS011;12356;49.386;8.688;2024-03-25T15:10:26;4.15;;;1.42;;
24216;SDS011;12356;49.386;8.688;2024-03-25T15:12:57;4.38;;;1.80;;
24216;SDS011;12356;49.386;8.688;2024-03-25T15:15:28;6.05;;;1.92;;